Time;durP1;ratioP1;P1;durP2;ratioP2;P2;SDS_P1;SDS_P2;PMS_P1;PMS_P2;Temp;Humidity;BMP_temperature;BMP_pressure;BME280_temperature;BME280_humidity;BME280_pressure;Samples;Min_cycle;Max_cycle;Signal;HPM_P1;HPM_P2
2022/10/09 00:00:09;;;;;;;;;10.75;8.00;;;;;14.59;48.67;101743.31;4969267;28;45554;-58
2022/10/09 00:02:34;;;;;;;;;11.40;9.00;;;;;14.62;48.53;101746.50;4989036;28;46324;-60
2022/10/09 00:05:00;;;;;;;;;9.50;7.25;;;;;14.47;48.26;101709.97;4983274;28;45408;-61
2022/10/09 00:07:25;;;;;;;;;11.25;7.00;;;;;14.68;48.52;101743.94;4991764;28;45455;-60
2022/10/09 00:09:51;;;;;;;;;10.25;7.75;;;;;14.69;48.59;101743.75;4995056;28;45168;-59
2022/10/09 00:12:16;;;;;;;;;7.25;6.50;;;;;14.68;48.63;101736.50;4992511;28;47394;-60
2022/10/09 00:14:42;;;;;;;;;9.00;7.00;;;;;14.68;48.64;101743.94;4994395;28;45397;-57
2022/10/09 00:17:08;;;;;;;;;5.50;5.50;;;;;14.62;48.48;101735.44;5026531;28;45412;-59
2022/10/09 00:19:33;;;;;;;;;8.00;6.50;;;;;14.67;48.78;101740.31;4993942;28;45342;-59
2022/10/09 00:21:59;;;;;;;;;9.75;7.50;;;;;14.60;48.18;101736.72;4994703;28;46477;-58
2022/10/09 00:24:24;;;;;;;;;6.25;5.00;;;;;14.61;48.74;101738.41;4993757;28;45478;-59
2022/10/09 00:26:50;;;;;;;;;8.00;6.50;;;;;14.64;48.19;101736.06;4995035;28;45394;-60
2022/10/09 00:29:15;;;;;;;;;8.75;6.25;;;;;14.61;48.98;101732.91;4994894;28;45302;-60
2022/10/09 00:31:40;;;;;;;;;8.50;7.75;;;;;14.59;49.18;101732.28;4994713;28;45675;-59
2022/10/09 00:34:06;;;;;;;;;11.75;9.25;;;;;14.44;48.83;101708.50;4996901;28;45557;-59
2022/10/09 00:36:32;;;;;;;;;6.00;6.00;;;;;14.55;48.81;101731.00;5030058;28;45394;-60
2022/10/09 00:38:57;;;;;;;;;7.50;5.00;;;;;14.55;49.07;101729.09;4998305;28;45444;-59
2022/10/09 00:41:25;;;;;;;;;5.50;5.50;;;;;14.52;49.09;101726.78;4996786;28;46023;-60
2022/10/09 00:43:58;;;;;;;;;7.80;5.80;;;;;14.57;48.52;101726.13;4996413;28;45485;-59
2022/10/09 00:46:47;;;;;;;;;5.60;5.00;;;;;14.54;49.03;101726.53;4996787;28;45361;-59
2022/10/09 00:49:27;;;;;;;;;6.20;3.60;;;;;14.47;48.81;101719.09;4998126;28;45315;-59
2022/10/09 00:51:53;;;;;;;;;4.80;4.40;;;;;14.46;48.87;101728.47;5012894;28;46616;-59
2022/10/09 00:54:20;;;;;;;;;4.20;4.20;;;;;14.36;48.95;101717.00;4985466;28;45388;-58
2022/10/09 00:56:47;;;;;;;;;4.00;4.00;;;;;14.30;49.74;101720.63;4990048;28;45298;-59
2022/10/09 00:59:15;;;;;;;;;5.20;5.20;;;;;14.31;49.56;101731.44;4996069;28;45525;-59
2022/10/09 01:01:41;;;;;;;;;3.00;3.00;;;;;14.27;49.61;101732.94;4996608;28;46377;-58
2022/10/09 01:04:06;;;;;;;;;3.50;3.25;;;;;14.18;49.81;101729.53;4997556;28;45826;-58
2022/10/09 01:06:50;;;;;;;;;2.00;2.00;;;;;14.16;50.13;101723.38;4996347;28;45388;-58
2022/10/09 01:09:22;;;;;;;;;4.80;4.80;;;;;14.19;49.74;101727.63;4997870;28;45808;-58
2022/10/09 01:11:53;;;;;;;;;3.60;3.60;;;;;13.98;49.75;101687.28;4996401;28;45340;-58
2022/10/09 01:14:24;;;;;;;;;5.40;3.40;;;;;14.10;50.21;101697.47;5012328;28;45975;-60
2022/10/09 01:17:05;;;;;;;;;3.40;3.40;;;;;13.93;50.09;101672.19;4980106;28;45308;-58
2022/10/09 01:19:55;;;;;;;;;4.80;3.60;;;;;14.10;49.81;101702.97;4996445;28;45496;-59
2022/10/09 01:22:32;;;;;;;;;4.40;2.60;;;;;14.07;50.22;101703.41;4995715;28;47096;-59
2022/10/09 01:25:07;;;;;;;;;6.40;5.40;;;;;14.14;49.90;101697.88;4995969;28;45553;-58
2022/10/09 01:27:33;;;;;;;;;8.80;7.20;;;;;14.04;50.00;101695.53;4980158;28;45752;-58
2022/10/09 01:30:00;;;;;;;;;4.00;4.00;;;;;14.01;50.28;101697.88;4979925;28;45608;-58
2022/10/09 01:32:29;;;;;;;;;4.00;4.00;;;;;13.68;50.23;101645.22;4995855;28;46762;-57
2022/10/09 01:34:55;;;;;;;;;7.60;7.60;;;;;13.88;50.55;101684.94;4996400;28;45876;-58
2022/10/09 01:37:20;;;;;;;;;5.75;4.75;;;;;13.87;50.26;101684.06;4995924;28;45838;-59
2022/10/09 01:39:46;;;;;;;;;5.25;5.25;;;;;13.88;50.41;101684.94;4979853;28;45576;-59
2022/10/09 01:42:12;;;;;;;;;4.00;3.00;;;;;13.85;50.93;101674.31;4995815;28;46343;-59
2022/10/09 01:44:38;;;;;;;;;7.40;5.80;;;;;13.85;50.43;101669.66;4978089;28;45409;-59
2022/10/09 01:47:03;;;;;;;;;10.75;6.75;;;;;13.80;50.94;101659.25;4997388;28;45408;-59
2022/10/09 01:49:47;;;;;;;;;9.00;5.50;;;;;13.84;50.61;101651.41;4979394;28;45503;-59
2022/10/09 01:52:28;;;;;;;;;5.20;5.00;;;;;13.36;50.61;101555.84;4995857;28;46310;-58
2022/10/09 01:55:31;;;;;;;;;6.40;5.40;;;;;13.89;50.86;101650.75;4997419;28;45148;-59
2022/10/09 01:58:18;;;;;;;;;4.00;4.00;;;;;13.90;50.63;101645.03;4997289;28;45337;-59
2022/10/09 02:01:11;;;;;;;;;3.60;3.60;;;;;13.81;50.88;101633.34;4997575;28;45422;-59
2022/10/09 02:03:38;;;;;;;;;3.80;3.80;;;;;13.66;50.74;101605.97;4995258;28;45314;-59
2022/10/09 02:06:04;;;;;;;;;5.00;4.00;;;;;13.83;50.71;101633.97;4977665;28;45855;-59
2022/10/09 02:08:30;;;;;;;;;3.20;3.00;;;;;13.65;50.41;101598.75;4997145;28;45319;-59
2022/10/09 02:10:56;;;;;;;;;5.25;5.25;;;;;13.80;51.25;101631.66;4979816;28;45690;-59
2022/10/09 02:13:21;;;;;;;;;7.00;4.50;;;;;13.77;50.87;101620.19;4978183;28;46284;-59
2022/10/09 02:15:50;;;;;;;;;4.00;3.00;;;;;13.65;50.85;101620.81;4996448;28;45441;-59
2022/10/09 02:18:20;;;;;;;;;3.40;3.40;;;;;13.44;51.37;101583.22;4995729;28;45468;-58
2022/10/09 02:20:47;;;;;;;;;3.80;3.20;;;;;13.64;50.93;101619.13;4979599;28;45559;-60
2022/10/09 02:23:13;;;;;;;;;5.00;4.60;;;;;13.49;51.26;101590.88;4978998;28;46457;-61
2022/10/09 02:25:38;;;;;;;;;2.75;2.00;;;;;13.64;51.26;101618.28;4995333;28;45431;-61
2022/10/09 02:28:04;;;;;;;;;3.00;3.00;;;;;13.35;51.17;101562.44;4995612;28;45361;-58
2022/10/09 02:30:38;;;;;;;;;3.00;3.00;;;;;13.59;51.07;101594.09;4995686;28;45520;-58
2022/10/09 02:33:04;;;;;;;;;3.20;2.40;;;;;13.39;51.10;101572.81;4979308;28;46211;-58
2022/10/09 02:35:29;;;;;;;;;1.60;1.60;;;;;13.63;51.17;101609.16;4962675;28;45745;-58
2022/10/09 02:37:55;;;;;;;;;3.00;3.00;;;;;13.51;51.34;101608.09;4996616;28;45437;-58
2022/10/09 02:40:20;;;;;;;;;3.75;2.50;;;;;13.55;51.44;101599.19;4996869;28;45374;-58
2022/10/09 02:42:46;;;;;;;;;3.00;3.00;;;;;13.54;51.31;101599.38;4995936;28;45943;-58
2022/10/09 02:45:11;;;;;;;;;5.00;3.75;;;;;13.48;51.44;101594.72;4996597;28;45405;-57
2022/10/09 02:47:37;;;;;;;;;6.00;5.75;;;;;13.55;51.56;101595.56;4996547;28;45353;-57
2022/10/09 02:50:03;;;;;;;;;4.25;4.00;;;;;13.54;51.64;101596.63;4996458;28;45521;-57
2022/10/09 02:52:28;;;;;;;;;3.00;3.00;;;;;13.49;51.57;101588.13;4996060;28;47116;-56
2022/10/09 02:54:54;;;;;;;;;2.00;2.00;;;;;13.25;51.61;101538.88;4994860;28;45428;-56
2022/10/09 02:57:19;;;;;;;;;3.50;3.50;;;;;13.54;51.81;101582.84;4995815;28;45388;-57
2022/10/09 02:59:45;;;;;;;;;3.75;3.75;;;;;13.50;51.65;101585.16;4996282;28;45305;-57
2022/10/09 03:02:10;;;;;;;;;5.00;3.75;;;;;13.55;51.41;101573.50;4994730;28;47080;-58
2022/10/09 03:04:36;;;;;;;;;5.00;5.00;;;;;13.51;51.67;101577.75;4995918;28;45286;-59
2022/10/09 03:07:02;;;;;;;;;4.50;4.00;;;;;13.39;51.64;101561.78;4994569;28;45374;-58
2022/10/09 03:09:28;;;;;;;;;7.00;5.00;;;;;13.50;51.34;101573.31;4994940;28;45634;-59
2022/10/09 03:11:53;;;;;;;;;4.00;3.00;;;;;13.26;52.07;101548.00;4994704;28;47565;-56
2022/10/09 03:14:19;;;;;;;;;6.00;5.00;;;;;13.40;51.66;101563.50;4995702;28;45424;-57
2022/10/09 03:16:44;;;;;;;;;5.00;5.00;;;;;13.47;51.59;101566.28;4995992;28;45303;-58
2022/10/09 03:19:10;;;;;;;;;4.00;4.00;;;;;13.51;51.58;101569.47;4996228;28;45410;-57
2022/10/09 03:21:35;;;;;;;;;7.50;7.25;;;;;13.45;51.79;101556.50;4995631;28;46349;-58
2022/10/09 03:24:01;;;;;;;;;5.50;5.25;;;;;13.32;52.00;101566.47;4995501;28;45400;-58
2022/10/09 03:26:26;;;;;;;;;9.25;5.00;;;;;13.34;52.20;101566.25;5027770;28;45463;-58
2022/10/09 03:28:53;;;;;;;;;5.00;5.00;;;;;13.40;52.19;101557.97;4985794;28;45271;-58
2022/10/09 03:31:20;;;;;;;;;7.40;6.20;;;;;13.20;51.85;101521.28;4966313;28;46685;-56
2022/10/09 03:33:46;;;;;;;;;6.00;6.00;;;;;13.44;51.96;101550.13;4970400;28;45407;-55
2022/10/09 03:36:12;;;;;;;;;6.00;5.00;;;;;13.44;51.86;101549.28;4974971;28;45471;-59
2022/10/09 03:38:38;;;;;;;;;5.50;5.50;;;;;13.45;51.47;101557.34;4975815;28;45490;-57
2022/10/09 03:41:04;;;;;;;;;5.25;4.25;;;;;13.42;51.83;101547.59;4974243;28;46395;-58
2022/10/09 03:43:30;;;;;;;;;4.00;4.00;;;;;13.45;51.42;101549.06;4973560;28;45451;-58
2022/10/09 03:45:55;;;;;;;;;3.50;3.50;;;;;13.45;51.51;101551.00;4972994;28;45488;-58
2022/10/09 03:48:21;;;;;;;;;4.00;4.00;;;;;13.39;51.51;101548.00;4974416;28;45512;-56
2022/10/09 03:50:46;;;;;;;;;3.25;3.25;;;;;13.43;51.05;101542.91;4975558;28;46302;-57
2022/10/09 03:53:15;;;;;;;;;5.25;5.00;;;;;13.42;51.06;101550.34;4975368;28;45252;-58
2022/10/09 03:55:42;;;;;;;;;3.00;3.00;;;;;13.40;51.42;101546.13;4974356;28;45359;-59
2022/10/09 03:58:07;;;;;;;;;3.80;3.80;;;;;13.38;51.34;101543.56;4974126;28;45659;-57
2022/10/09 04:00:33;;;;;;;;;4.00;3.00;;;;;13.38;51.51;101546.31;4975343;28;45739;-57
2022/10/09 04:02:58;;;;;;;;;3.00;3.00;;;;;13.33;51.55;101532.31;4975394;28;45434;-58
2022/10/09 04:05:24;;;;;;;;;4.00;4.00;;;;;13.12;51.44;101511.28;4975109;28;45389;-58
2022/10/09 04:07:49;;;;;;;;;3.50;3.00;;;;;13.19;51.45;101522.34;4975045;28;45409;-56
2022/10/09 04:10:15;;;;;;;;;4.75;4.75;;;;;13.17;51.60;101533.56;4974928;28;46461;-58
2022/10/09 04:12:41;;;;;;;;;4.25;4.25;;;;;13.18;52.33;101531.66;4975392;28;45390;-57
2022/10/09 04:15:07;;;;;;;;;4.00;2.25;;;;;13.21;51.87;101531.22;4982541;28;45394;-57
2022/10/09 04:17:32;;;;;;;;;4.20;3.00;;;;;13.22;51.82;101532.94;4993736;28;45592;-58
2022/10/09 04:19:58;;;;;;;;;4.75;3.00;;;;;13.23;51.89;101537.41;4994879;28;45348;-58
2022/10/09 04:22:23;;;;;;;;;6.00;3.25;;;;;13.21;51.63;101526.59;4994702;28;45336;-57
2022/10/09 04:24:49;;;;;;;;;5.00;5.00;;;;;13.24;51.77;101533.59;4993398;28;45358;-57
2022/10/09 04:27:15;;;;;;;;;5.00;5.00;;;;;13.19;51.73;101536.97;4995100;28;45451;-58
2022/10/09 04:29:40;;;;;;;;;6.25;4.75;;;;;13.21;52.13;101534.00;4992987;28;47876;-57
2022/10/09 04:32:06;;;;;;;;;5.00;5.00;;;;;13.22;51.96;101530.16;4993639;28;45283;-58
2022/10/09 04:34:31;;;;;;;;;3.00;3.00;;;;;13.20;51.96;101530.41;4994580;28;45335;-58
2022/10/09 04:36:57;;;;;;;;;3.50;3.50;;;;;13.18;51.89;101528.91;5026588;28;45617;-56
2022/10/09 04:39:22;;;;;;;;;5.00;5.00;;;;;13.12;52.20;101519.56;4993127;28;46825;-56
2022/10/09 04:41:48;;;;;;;;;4.25;4.25;;;;;13.10;52.01;101522.53;4993206;28;45467;-56
2022/10/09 04:44:13;;;;;;;;;5.25;4.75;;;;;12.96;52.44;101502.38;4994723;28;45384;-59
2022/10/09 04:46:39;;;;;;;;;4.00;4.00;;;;;13.13;52.17;101518.53;4993226;28;45519;-59
2022/10/09 04:49:04;;;;;;;;;5.25;5.25;;;;;13.14;51.99;101526.56;4994337;28;45363;-58
2022/10/09 04:51:30;;;;;;;;;5.00;4.00;;;;;13.06;52.58;101521.25;4994543;28;45430;-58
2022/10/09 04:53:55;;;;;;;;;8.25;5.75;;;;;13.04;52.45;101528.91;4994275;28;45414;-58
2022/10/09 04:56:21;;;;;;;;;3.75;3.75;;;;;12.82;52.50;101487.72;4994830;28;45302;-58
2022/10/09 04:58:47;;;;;;;;;5.50;4.50;;;;;13.05;52.44;101522.31;4993847;28;46278;-58
2022/10/09 05:01:24;;;;;;;;;5.00;4.00;;;;;12.96;52.34;101518.91;4994537;28;45272;-56
2022/10/09 05:03:50;;;;;;;;;5.80;4.60;;;;;12.96;52.62;101523.59;4993268;28;45351;-58
2022/10/09 05:06:17;;;;;;;;;4.25;4.25;;;;;12.95;52.55;101519.97;4994514;28;45624;-58
2022/10/09 05:08:42;;;;;;;;;4.00;4.00;;;;;12.95;52.67;101517.22;4993011;28;45495;-57
2022/10/09 05:11:13;;;;;;;;;6.50;3.00;;;;;12.94;52.40;101506.41;4994137;28;45393;-57
2022/10/09 05:13:41;;;;;;;;;4.60;4.60;;;;;12.93;52.65;101504.69;5010014;28;45406;-57
2022/10/09 05:16:08;;;;;;;;;4.60;4.60;;;;;12.87;52.54;101498.13;4977482;28;45338;-57
2022/10/09 05:18:34;;;;;;;;;4.80;3.80;;;;;12.25;53.16;101394.41;4957503;28;45625;-57
2022/10/09 05:21:03;;;;;;;;;5.00;4.00;;;;;12.85;52.73;101502.97;4976289;28;45426;-57
2022/10/09 05:23:28;;;;;;;;;6.00;4.80;;;;;12.85;52.70;101506.59;4976668;28;45379;-57
2022/10/09 05:25:57;;;;;;;;;5.50;4.00;;;;;12.83;52.60;101505.97;4977719;28;45670;-58
2022/10/09 05:28:23;;;;;;;;;6.00;4.60;;;;;12.78;52.84;101491.97;4977804;28;46124;-57
2022/10/09 05:30:48;;;;;;;;;3.20;3.00;;;;;12.81;52.78;101504.47;4977450;28;45498;-57
2022/10/09 05:33:14;;;;;;;;;6.00;4.00;;;;;12.71;53.09;101504.88;4978072;28;45474;-57
2022/10/09 05:35:39;;;;;;;;;5.00;5.00;;;;;12.71;52.91;101502.13;4976790;28;45458;-57
2022/10/09 05:38:05;;;;;;;;;5.25;4.25;;;;;12.62;53.60;101490.44;4976373;28;45562;-57
2022/10/09 05:40:30;;;;;;;;;4.00;4.00;;;;;12.63;53.09;101489.38;4977916;28;45426;-57
2022/10/09 05:42:56;;;;;;;;;3.00;3.00;;;;;12.56;53.00;101481.09;4977783;28;45292;-57
2022/10/09 05:45:21;;;;;;;;;4.00;4.00;;;;;12.68;52.81;101495.13;4978067;28;45568;-57
2022/10/09 05:47:47;;;;;;;;;3.75;3.50;;;;;12.67;52.88;101487.91;4977612;28;46160;-58
2022/10/09 05:50:12;;;;;;;;;3.25;3.00;;;;;12.68;52.92;101494.25;4976450;28;45776;-57
2022/10/09 05:52:38;;;;;;;;;5.00;3.00;;;;;12.67;52.79;101489.81;4977727;28;45432;-58
2022/10/09 05:55:05;;;;;;;;;4.60;3.00;;;;;12.68;52.92;101494.25;4977249;28;45567;-58
2022/10/09 05:57:31;;;;;;;;;3.60;3.60;;;;;12.65;52.99;101489.19;4977610;28;47120;-57
2022/10/09 05:59:56;;;;;;;;;3.75;3.00;;;;;12.66;52.79;101494.50;4977641;28;45288;-57
2022/10/09 06:02:22;;;;;;;;;5.75;4.25;;;;;12.65;52.96;101480.91;4977823;28;45287;-57
2022/10/09 06:04:47;;;;;;;;;3.25;3.25;;;;;12.65;53.02;101480.91;4977515;28;45390;-58
2022/10/09 06:07:12;;;;;;;;;3.25;3.25;;;;;12.58;53.10;101476.25;4977287;28;46396;-58
2022/10/09 06:09:38;;;;;;;;;5.75;3.75;;;;;12.36;53.51;101458.16;4977328;28;45466;-58
2022/10/09 06:12:04;;;;;;;;;7.00;6.00;;;;;12.45;53.73;101489.97;4976145;28;45486;-56
2022/10/09 06:14:29;;;;;;;;;4.50;4.25;;;;;12.42;53.65;101482.97;4979265;28;45584;-57
2022/10/09 06:16:56;;;;;;;;;7.00;4.75;;;;;12.45;53.75;101485.28;4996614;28;46604;-58
2022/10/09 06:19:22;;;;;;;;;5.60;5.60;;;;;12.38;53.72;101475.31;5012201;28;45450;-56
2022/10/09 06:21:48;;;;;;;;;4.00;4.00;;;;;12.47;53.87;101482.34;4997043;28;45307;-58
2022/10/09 06:24:26;;;;;;;;;4.00;4.00;;;;;12.46;53.31;101475.13;4995750;28;45673;-58
2022/10/09 06:26:52;;;;;;;;;4.60;4.60;;;;;12.46;53.54;101477.88;5013643;28;45722;-59
2022/10/09 06:29:17;;;;;;;;;5.00;5.00;;;;;12.51;53.62;101482.78;4995051;28;45550;-58
2022/10/09 06:31:43;;;;;;;;;4.75;4.75;;;;;12.51;53.54;101472.63;4994337;28;45399;-57
2022/10/09 06:34:09;;;;;;;;;11.00;6.75;;;;;12.07;52.94;101397.72;4996562;28;45527;-58
2022/10/09 06:36:34;;;;;;;;;9.25;7.50;;;;;12.61;53.49;101474.97;5027669;28;46647;-58
2022/10/09 06:39:01;;;;;;;;;9.00;8.25;;;;;12.47;52.73;101444.66;4978693;28;45507;-57
2022/10/09 06:41:27;;;;;;;;;5.00;5.00;;;;;12.48;53.27;101448.22;4996106;28;45358;-57
2022/10/09 06:43:55;;;;;;;;;5.40;5.40;;;;;12.57;53.24;101459.91;4996606;28;45663;-58
2022/10/09 06:46:22;;;;;;;;;6.40;6.40;;;;;12.63;53.19;101467.34;4994686;28;45531;-58
2022/10/09 06:48:47;;;;;;;;;5.40;5.00;;;;;12.68;53.10;101475.84;4996547;28;45426;-58
2022/10/09 06:51:15;;;;;;;;;8.75;6.25;;;;;12.72;53.11;101473.50;4995238;28;45489;-58
2022/10/09 06:54:00;;;;;;;;;7.00;6.00;;;;;12.74;53.00;101482.41;5011335;28;45317;-56
2022/10/09 06:56:28;;;;;;;;;6.00;6.00;;;;;12.72;53.09;101474.34;4977658;28;45528;-56
2022/10/09 06:58:53;;;;;;;;;6.60;6.00;;;;;12.63;53.26;101469.28;5011166;28;46023;-59
2022/10/09 07:01:23;;;;;;;;;7.25;7.25;;;;;12.64;53.38;101474.53;4996092;28;45356;-61
2022/10/09 07:03:56;;;;;;;;;10.40;7.00;;;;;12.43;53.03;101435.09;4996305;28;45271;-57
2022/10/09 07:06:28;;;;;;;;;6.20;6.20;;;;;12.65;53.47;101469.91;4994394;28;45812;-57
2022/10/09 07:08:59;;;;;;;;;4.80;4.80;;;;;12.69;53.12;101469.28;4994699;28;45420;-58
2022/10/09 07:11:33;;;;;;;;;4.00;4.00;;;;;12.70;52.92;101465.44;4996062;28;45402;-59
2022/10/09 07:14:00;;;;;;;;;6.40;5.80;;;;;12.67;52.92;101446.59;4995166;28;45363;-59
2022/10/09 07:16:27;;;;;;;;;9.80;6.60;;;;;12.74;53.00;101461.22;4993524;28;45604;-58
2022/10/09 07:18:54;;;;;;;;;6.60;5.60;;;;;12.69;52.91;101443.63;4974932;28;45382;-58
2022/10/09 07:21:19;;;;;;;;;13.20;10.20;;;;;12.69;53.25;101460.16;4958816;28;45413;-58
2022/10/09 07:23:45;;;;;;;;;7.25;5.75;;;;;12.69;52.96;101455.50;4975913;28;45585;-59
2022/10/09 07:26:16;;;;;;;;;6.00;6.00;;;;;12.73;52.82;101465.06;4958533;28;45923;-57
2022/10/09 07:28:42;;;;;;;;;9.60;6.00;;;;;12.74;52.68;101455.72;4975714;28;45395;-55
2022/10/09 07:31:07;;;;;;;;;6.75;6.50;;;;;12.74;52.92;101460.38;4974674;28;45484;-57
2022/10/09 07:33:33;;;;;;;;;7.75;6.75;;;;;12.73;53.10;101459.53;4976207;28;45784;-57
2022/10/09 07:35:59;;;;;;;;;4.75;4.50;;;;;12.74;53.03;101458.47;4974094;28;48143;-57
2022/10/09 07:38:25;;;;;;;;;5.00;5.00;;;;;12.76;53.13;101449.16;4976091;28;45328;-59
2022/10/09 07:40:51;;;;;;;;;4.00;4.00;;;;;12.68;52.86;101431.78;4974281;28;45355;-58
2022/10/09 07:43:17;;;;;;;;;4.00;4.00;;;;;12.77;53.00;101450.84;4976341;28;45302;-60
2022/10/09 07:45:43;;;;;;;;;4.50;4.50;;;;;12.79;52.79;101449.59;4974202;28;47941;-58
2022/10/09 07:48:08;;;;;;;;;9.50;7.00;;;;;12.79;52.97;101446.81;4975871;28;45454;-57
2022/10/09 07:50:34;;;;;;;;;8.50;6.50;;;;;12.82;52.98;101437.31;4958157;28;45368;-56
2022/10/09 07:52:59;;;;;;;;;9.00;6.75;;;;;12.87;52.83;101445.78;4974258;28;45592;-57
2022/10/09 07:55:25;;;;;;;;;8.75;7.00;;;;;12.79;53.18;101444.06;4975287;28;45560;-58
2022/10/09 07:57:51;;;;;;;;;7.75;5.00;;;;;12.81;53.17;101446.63;4975582;28;45306;-57
2022/10/09 08:00:16;;;;;;;;;9.00;9.00;;;;;12.79;53.16;101432.19;4937140;28;45738;-59
2022/10/09 08:02:42;;;;;;;;;10.00;8.00;;;;;12.83;53.08;101431.59;4994097;28;45595;-55
2022/10/09 08:05:08;;;;;;;;;7.25;7.25;;;;;12.92;53.09;101437.72;4993694;28;46397;-55
2022/10/09 08:07:33;;;;;;;;;6.00;6.00;;;;;12.96;53.06;101433.50;4993437;28;45413;-56
2022/10/09 08:09:59;;;;;;;;;6.00;5.25;;;;;12.91;53.10;101422.25;4995014;28;45338;-58
2022/10/09 08:12:25;;;;;;;;;7.50;6.75;;;;;12.93;52.97;101433.06;4995378;28;45600;-56
2022/10/09 08:14:50;;;;;;;;;7.00;6.00;;;;;12.94;53.15;101432.00;5006098;28;47359;-57
2022/10/09 08:17:16;;;;;;;;;9.25;9.00;;;;;12.94;53.16;101427.34;4975026;28;45343;-59
2022/10/09 08:19:41;;;;;;;;;8.25;8.25;;;;;12.88;53.36;101418.00;4975451;28;45356;-56
2022/10/09 08:22:07;;;;;;;;;7.75;7.75;;;;;12.98;53.74;101425.84;4974153;28;45616;-59
2022/10/09 08:24:33;;;;;;;;;5.00;5.00;;;;;12.82;53.34;101399.56;4973880;28;45873;-60
2022/10/09 08:26:58;;;;;;;;;11.00;9.00;;;;;12.60;53.17;101357.63;4957658;28;45511;-57
2022/10/09 08:29:24;;;;;;;;;8.50;7.00;;;;;13.03;53.29;101422.50;4975073;28;45454;-59
2022/10/09 08:31:50;;;;;;;;;6.25;6.25;;;;;13.06;53.40;101416.53;4975646;28;45455;-59
2022/10/09 08:34:16;;;;;;;;;7.40;6.40;;;;;13.04;53.26;101404.88;4975088;28;46855;-59
2022/10/09 08:36:42;;;;;;;;;6.00;5.00;;;;;12.83;53.40;101375.63;4974050;28;45403;-62
2022/10/09 08:39:07;;;;;;;;;6.75;6.75;;;;;12.94;53.47;101387.91;4957569;28;45363;-58
2022/10/09 08:41:50;;;;;;;;;8.50;7.00;;;;;13.11;53.30;101408.50;4973911;28;45552;-62
2022/10/09 08:44:19;;;;;;;;;6.80;6.80;;;;;13.11;53.46;101408.50;4973380;28;46208;-60
2022/10/09 08:47:21;;;;;;;;;8.20;8.20;;;;;13.15;53.65;101406.97;4974960;28;45349;-59
2022/10/09 08:49:52;;;;;;;;;6.20;5.80;;;;;13.17;53.67;101405.94;4972028;28;45394;-59
2022/10/09 08:52:39;;;;;;;;;8.40;7.00;;;;;13.23;53.88;101399.59;4973727;28;46176;-57
2022/10/09 08:55:13;;;;;;;;;6.60;6.20;;;;;13.26;53.84;101399.13;4961777;28;48550;-58
2022/10/09 08:57:39;;;;;;;;;7.60;7.00;;;;;13.24;53.92;101380.06;4977109;28;45362;-57
2022/10/09 09:00:19;;;;;;;;;12.25;11.25;;;;;13.28;53.82;101386.84;4958503;28;45396;-59
2022/10/09 09:02:50;;;;;;;;;8.40;8.00;;;;;13.33;53.91;101388.94;4991351;28;45447;-59
2022/10/09 09:05:20;;;;;;;;;7.00;5.80;;;;;13.40;53.51;101389.78;4995761;28;46297;-58
2022/10/09 09:07:49;;;;;;;;;10.40;7.20;;;;;13.27;53.62;101351.22;4998287;28;45339;-61
2022/10/09 09:10:36;;;;;;;;;7.60;6.40;;;;;13.52;53.37;101376.22;4996604;28;45468;-59
2022/10/09 09:13:35;;;;;;;;;8.60;8.20;;;;;13.58;53.76;101376.41;4998374;28;45622;-60
2022/10/09 09:16:09;;;;;;;;;10.60;9.40;;;;;13.50;53.21;101355.44;4986505;28;46935;-59
2022/10/09 09:18:46;;;;;;;;;7.60;7.60;;;;;13.71;53.09;101373.59;4976918;28;45406;-58
2022/10/09 09:21:27;;;;;;;;;7.20;6.00;;;;;13.72;53.52;101371.69;4977986;28;45257;-58
2022/10/09 09:23:52;;;;;;;;;6.80;5.80;;;;;13.76;53.68;101361.94;4978200;28;45394;-59
2022/10/09 09:26:19;;;;;;;;;6.50;6.50;;;;;13.73;53.54;101348.56;4977982;28;46655;-58
2022/10/09 09:28:45;;;;;;;;;9.00;6.40;;;;;13.64;53.62;101324.00;4977897;28;45391;-59
2022/10/09 09:31:22;;;;;;;;;7.80;6.80;;;;;13.88;53.60;101357.41;4976964;28;45360;-59
2022/10/09 09:34:06;;;;;;;;;1.80;0.80;;;;;13.96;53.09;101354.41;4976959;28;45568;-60
2022/10/09 09:36:56;;;;;;;;;5.00;5.00;;;;;14.05;53.44;101345.88;4976305;28;46471;-59
2022/10/09 09:39:23;;;;;;;;;7.80;6.80;;;;;14.14;53.14;101346.47;4976583;28;45473;-59
2022/10/09 09:41:49;;;;;;;;;9.40;7.20;;;;;14.20;53.17;101342.81;4976626;28;45391;-59
2022/10/09 09:44:15;;;;;;;;;8.50;7.00;;;;;13.78;53.21;101258.56;4976747;28;45509;-56
2022/10/09 09:46:41;;;;;;;;;5.00;5.00;;;;;14.37;52.35;101332.09;4977245;28;46026;-58
2022/10/09 09:49:26;;;;;;;;;5.50;5.00;;;;;14.48;52.60;101336.88;4976971;28;45350;-57
2022/10/09 09:51:52;;;;;;;;;6.40;6.40;;;;;14.61;52.40;101327.66;4959587;28;45770;-58
2022/10/09 09:54:20;;;;;;;;;6.00;6.00;;;;;14.75;51.87;101328.44;5024533;28;45746;-58
2022/10/09 09:56:46;;;;;;;;;6.60;6.60;;;;;14.84;51.58;101320.69;4995230;28;46760;-58
2022/10/09 09:59:37;;;;;;;;;7.40;7.00;;;;;14.94;51.66;101319.34;4995734;28;45390;-56
2022/10/09 10:02:11;;;;;;;;;6.60;4.40;;;;;15.04;51.27;101322.41;4994470;28;45508;-57
2022/10/09 10:04:37;;;;;;;;;7.20;6.60;;;;;14.97;50.96;101286.56;4994788;28;45313;-57
2022/10/09 10:07:04;;;;;;;;;7.00;5.00;;;;;15.07;50.58;101266.69;4991844;28;45421;-57
2022/10/09 10:09:31;;;;;;;;;8.40;7.60;;;;;15.44;51.13;101301.78;4994493;28;45933;-56
2022/10/09 10:12:02;;;;;;;;;7.60;6.40;;;;;15.63;50.71;101299.84;4995642;28;45453;-56
2022/10/09 10:14:28;;;;;;;;;6.20;5.00;;;;;15.75;50.03;101299.94;4994674;28;45484;-58
2022/10/09 10:16:54;;;;;;;;;6.00;4.50;;;;;15.86;49.82;101285.28;4993792;28;45485;-53
2022/10/09 10:19:22;;;;;;;;;6.60;6.40;;;;;15.99;49.92;101281.53;4993287;28;46318;-54
2022/10/09 10:21:58;;;;;;;;;5.20;5.00;;;;;16.11;49.62;101278.78;4995456;28;45764;-54
2022/10/09 10:24:34;;;;;;;;;4.00;4.00;;;;;16.25;49.46;101284.13;4995708;28;45351;-56
2022/10/09 10:27:11;;;;;;;;;5.80;5.00;;;;;16.36;49.25;101277.75;4981028;28;46653;-57
2022/10/09 10:29:39;;;;;;;;;4.80;4.80;;;;;16.54;49.00;101273.19;4965185;28;45818;-58
2022/10/09 10:32:32;;;;;;;;;4.40;3.40;;;;;16.66;48.46;101271.28;4969884;28;45540;-58
2022/10/09 10:35:15;;;;;;;;;2.80;2.40;;;;;16.83;48.17;101267.81;4995356;28;45617;-59
2022/10/09 10:38:14;;;;;;;;;4.80;4.80;;;;;16.96;47.96;101263.94;4993908;28;46674;-59
2022/10/09 10:40:47;;;;;;;;;6.40;5.80;;;;;16.82;47.53;101221.78;4995368;28;45412;-59
2022/10/09 10:43:41;;;;;;;;;6.00;6.00;;;;;17.16;47.28;101262.72;4988692;28;45371;-60
2022/10/09 10:46:27;;;;;;;;;5.80;5.00;;;;;17.29;47.38;101259.69;4974315;28;45657;-61
2022/10/09 10:48:52;;;;;;;;;5.80;5.00;;;;;17.44;46.73;101250.84;4973891;28;45962;-59
2022/10/09 10:51:41;;;;;;;;;6.50;5.50;;;;;17.55;46.69;101240.78;4964229;28;45454;-60
2022/10/09 10:54:25;;;;;;;;;6.20;5.80;;;;;17.69;46.53;101237.72;4975311;28;45429;-60
2022/10/09 10:57:09;;;;;;;;;4.00;4.00;;;;;17.77;45.94;101228.16;4992353;28;45472;-60
2022/10/09 10:59:40;;;;;;;;;5.60;5.20;;;;;17.89;45.89;101223.41;4994990;28;45938;-60
2022/10/09 11:02:31;;;;;;;;;8.20;7.20;;;;;18.01;46.12;101223.31;4994830;28;45349;-60
2022/10/09 11:05:16;;;;;;;;;8.80;5.80;;;;;18.17;45.85;101212.50;4993588;28;45361;-60
2022/10/09 11:07:41;;;;;;;;;8.60;8.60;;;;;18.30;45.56;101201.06;4993160;28;45507;-60
2022/10/09 11:10:25;;;;;;;;;7.50;6.00;;;;;18.40;45.33;101201.22;4994021;28;45369;-60
2022/10/09 11:13:12;;;;;;;;;7.00;5.40;;;;;18.51;44.85;101199.44;4974754;28;45374;-60
2022/10/09 11:16:06;;;;;;;;;7.20;4.80;;;;;18.46;44.59;101165.19;4978995;28;45452;-58
2022/10/09 11:18:43;;;;;;;;;5.20;4.20;;;;;18.75;45.00;101187.28;4966060;28;45680;-59
2022/10/09 11:21:45;;;;;;;;;3.80;3.80;;;;;18.89;44.29;101185.81;4991863;28;45368;-60
2022/10/09 11:24:58;;;;;;;;;4.00;3.00;;;;;19.16;43.75;101181.47;4994384;28;45420;-58
2022/10/09 11:27:38;;;;;;;;;5.20;4.60;;;;;19.66;42.89;101181.44;4952553;28;45498;-59
2022/10/09 11:30:11;;;;;;;;;6.20;6.20;;;;;20.72;41.18;101175.34;4992943;28;45638;-59
2022/10/09 11:32:41;;;;;;;;;7.00;6.00;;;;;23.95;35.51;101172.00;4990458;28;46649;-58
2022/10/09 11:35:06;;;;;;;;;5.60;5.60;;;;;27.26;30.37;101127.25;4974287;28;45592;-58